Time;durP1;ratioP1;P1;durP2;ratioP2;P2;SDS_P1;SDS_P2;PMS_P1;PMS_P2;Temp;Humidity;BMP_temperature;BMP_pressure;BME280_temperature;BME280_humidity;BME280_pressure;Samples;Min_cycle;Max_cycle;Signal;HPM_P1;HPM_P2
2023/11/01 00:02:00;;;;;;;2.92;1.00;;;;;;;;;;5119606;28;20044;-74
2023/11/01 00:04:26;;;;;;;3.92;1.10;;;;;;;;;;5118162;28;20028;-73
2023/11/01 00:06:52;;;;;;;5.32;1.23;;;;;;;;;;5118316;28;20047;-73
2023/11/01 00:09:19;;;;;;;5.40;1.10;;;;;;;;;;5119150;28;20034;-73
2023/11/01 00:11:44;;;;;;;5.72;1.20;;;;;;;;;;5118223;28;20023;-74
2023/11/01 00:14:10;;;;;;;7.40;1.30;;;;;;;;;;5118150;28;20023;-73
2023/11/01 00:16:36;;;;;;;5.55;0.93;;;;;;;;;;5118116;28;20016;-74
2023/11/01 00:19:02;;;;;;;6.88;1.15;;;;;;;;;;5107345;28;20096;-74
2023/11/01 00:21:28;;;;;;;4.32;1.02;;;;;;;;;;5119311;28;20032;-73
2023/11/01 00:23:55;;;;;;;4.07;0.80;;;;;;;;;;5118951;28;20098;-73
2023/11/01 00:26:21;;;;;;;4.97;1.00;;;;;;;;;;5100732;28;20454;-73
2023/11/01 00:28:47;;;;;;;5.88;0.90;;;;;;;;;;5119027;28;20024;-73
2023/11/01 00:31:13;;;;;;;5.82;1.00;;;;;;;;;;5119286;28;20083;-73
2023/11/01 00:33:39;;;;;;;5.57;1.05;;;;;;;;;;5118995;28;20019;-73
2023/11/01 00:36:05;;;;;;;3.45;0.90;;;;;;;;;;5100957;28;20038;-73
2023/11/01 00:38:35;;;;;;;2.92;1.00;;;;;;;;;;5100315;28;20019;-73
2023/11/01 00:41:02;;;;;;;4.47;1.08;;;;;;;;;;5118598;28;20160;-73
2023/11/01 00:43:29;;;;;;;6.60;1.15;;;;;;;;;;5118663;28;20023;-73
2023/11/01 00:45:55;;;;;;;5.43;1.10;;;;;;;;;;5118801;28;20024;-74
2023/11/01 00:48:21;;;;;;;7.35;1.25;;;;;;;;;;5118664;28;20491;-73
2023/11/01 00:50:47;;;;;;;3.72;0.82;;;;;;;;;;5107424;27;20038;-74
2023/11/01 00:53:13;;;;;;;3.88;0.95;;;;;;;;;;5120796;27;20380;-74
2023/11/01 00:55:39;;;;;;;3.45;0.98;;;;;;;;;;5118700;28;20507;-74
2023/11/01 00:58:05;;;;;;;4.38;1.20;;;;;;;;;;5118398;28;20023;-74
2023/11/01 01:00:31;;;;;;;6.55;1.58;;;;;;;;;;5118561;28;20537;-73
2023/11/01 01:02:57;;;;;;;5.30;1.20;;;;;;;;;;5118266;28;20043;-74
2023/11/01 01:05:23;;;;;;;5.32;1.50;;;;;;;;;;5118521;28;20020;-74
2023/11/01 01:07:49;;;;;;;3.90;1.20;;;;;;;;;;5099765;28;20115;-73
2023/11/01 01:10:15;;;;;;;3.75;0.77;;;;;;;;;;5118207;28;20031;-73
2023/11/01 01:12:41;;;;;;;5.70;0.88;;;;;;;;;;5118207;28;20028;-73
2023/11/01 01:15:08;;;;;;;4.40;1.10;;;;;;;;;;5118762;28;20027;-73
2023/11/01 01:17:34;;;;;;;4.53;0.90;;;;;;;;;;5118054;28;20102;-73
2023/11/01 01:20:00;;;;;;;3.40;1.00;;;;;;;;;;5118134;28;20023;-74
2023/11/01 01:22:26;;;;;;;4.57;0.90;;;;;;;;;;5118196;28;20027;-73
2023/11/01 01:24:52;;;;;;;2.28;0.70;;;;;;;;;;5117687;28;20027;-73
2023/11/01 01:27:18;;;;;;;3.00;0.80;;;;;;;;;;5117878;28;20027;-72
2023/11/01 01:29:44;;;;;;;2.53;0.80;;;;;;;;;;5118137;28;20031;-72
2023/11/01 01:32:10;;;;;;;3.05;0.80;;;;;;;;;;5117923;28;20031;-72
2023/11/01 01:34:36;;;;;;;5.60;0.93;;;;;;;;;;5117989;28;20030;-73
2023/11/01 01:37:02;;;;;;;4.13;0.95;;;;;;;;;;5117905;28;20028;-73
2023/11/01 01:39:28;;;;;;;6.45;1.00;;;;;;;;;;5117657;28;20058;-73
2023/11/01 01:41:54;;;;;;;2.75;0.90;;;;;;;;;;5099324;28;20015;-73
2023/11/01 01:44:20;;;;;;;4.38;0.95;;;;;;;;;;5117842;28;20024;-73
2023/11/01 01:46:46;;;;;;;3.95;0.90;;;;;;;;;;5117712;28;20495;-73
2023/11/01 01:49:13;;;;;;;4.35;1.00;;;;;;;;;;5117839;28;20027;-73
2023/11/01 01:51:40;;;;;;;3.30;0.80;;;;;;;;;;5126859;28;20430;-73
2023/11/01 01:54:06;;;;;;;3.25;0.90;;;;;;;;;;5117588;28;20495;-73
2023/11/01 01:56:32;;;;;;;3.33;0.80;;;;;;;;;;5099265;28;20088;-73
2023/11/01 01:58:59;;;;;;;3.17;0.70;;;;;;;;;;5118058;28;20031;-72
2023/11/01 02:01:27;;;;;;;3.25;0.65;;;;;;;;;;5117653;28;20083;-73
2023/11/01 02:03:54;;;;;;;5.15;0.80;;;;;;;;;;5117649;28;20395;-73
2023/11/01 02:06:20;;;;;;;3.10;0.55;;;;;;;;;;5117453;28;20034;-73
2023/11/01 02:08:46;;;;;;;2.50;0.52;;;;;;;;;;5099100;28;20471;-73
2023/11/01 02:11:12;;;;;;;3.60;1.00;;;;;;;;;;5117366;28;20503;-73
2023/11/01 02:13:38;;;;;;;4.07;0.77;;;;;;;;;;5117253;28;20024;-73
2023/11/01 02:16:04;;;;;;;3.67;0.70;;;;;;;;;;5112045;28;20023;-72
2023/11/01 02:18:30;;;;;;;3.22;0.77;;;;;;;;;;5117366;28;20028;-72
2023/11/01 02:20:56;;;;;;;2.72;0.90;;;;;;;;;;5115687;28;20031;-72
2023/11/01 02:23:32;;;;;;;4.47;1.15;;;;;;;;;;5114874;28;20024;-72
2023/11/01 02:25:58;;;;;;;3.50;0.70;;;;;;;;;;5115749;28;20028;-73
2023/11/01 02:28:24;;;;;;;5.22;0.90;;;;;;;;;;5115996;28;20051;-73
2023/11/01 02:30:50;;;;;;;2.53;0.60;;;;;;;;;;5117717;28;20024;-72
2023/11/01 02:33:16;;;;;;;3.15;0.68;;;;;;;;;;5117337;28;20104;-73
2023/11/01 02:35:42;;;;;;;3.88;0.80;;;;;;;;;;5116123;28;20023;-72
2023/11/01 02:38:09;;;;;;;4.50;0.88;;;;;;;;;;5119575;28;20035;-72
2023/11/01 02:40:35;;;;;;;4.10;0.90;;;;;;;;;;5121054;28;20019;-73
2023/11/01 02:43:01;;;;;;;5.18;0.70;;;;;;;;;;5121118;28;20024;-73
2023/11/01 02:45:27;;;;;;;3.47;0.70;;;;;;;;;;5121193;28;20020;-73
2023/11/01 02:47:53;;;;;;;2.85;0.70;;;;;;;;;;5102737;28;20020;-73
2023/11/01 02:50:19;;;;;;;3.17;0.82;;;;;;;;;;5124273;27;20423;-73
2023/11/01 02:52:46;;;;;;;3.80;1.00;;;;;;;;;;5126375;27;20032;-73
2023/11/01 02:55:13;;;;;;;2.33;0.82;;;;;;;;;;5121253;28;20527;-72
2023/11/01 02:57:39;;;;;;;2.95;0.60;;;;;;;;;;5120908;28;20062;-73
2023/11/01 03:00:06;;;;;;;2.28;0.63;;;;;;;;;;5120997;28;20023;-72
2023/11/01 03:02:36;;;;;;;2.20;0.65;;;;;;;;;;5102573;28;20106;-72
2023/11/01 03:05:03;;;;;;;5.30;0.90;;;;;;;;;;5120918;28;20383;-72
2023/11/01 03:07:29;;;;;;;3.72;0.60;;;;;;;;;;5120595;28;20024;-72
2023/11/01 03:09:55;;;;;;;2.28;0.65;;;;;;;;;;5120535;28;20024;-73
2023/11/01 03:12:21;;;;;;;3.17;0.68;;;;;;;;;;5120551;28;20062;-73
2023/11/01 03:14:47;;;;;;;4.38;0.93;;;;;;;;;;5120945;28;20441;-72
2023/11/01 03:17:13;;;;;;;3.40;0.80;;;;;;;;;;5120463;28;20028;-73
2023/11/01 03:19:39;;;;;;;2.67;0.73;;;;;;;;;;5120696;28;20020;-72
2023/11/01 03:22:05;;;;;;;3.33;0.70;;;;;;;;;;5120356;28;20031;-72
2023/11/01 03:24:32;;;;;;;4.22;0.90;;;;;;;;;;5120333;28;20024;-72
2023/11/01 03:26:58;;;;;;;3.00;0.80;;;;;;;;;;5120143;28;20062;-72
2023/11/01 03:29:24;;;;;;;5.80;0.77;;;;;;;;;;5120403;28;20492;-72
2023/11/01 03:31:50;;;;;;;2.60;1.00;;;;;;;;;;5101929;28;20027;-73
2023/11/01 03:34:16;;;;;;;3.40;0.57;;;;;;;;;;5101949;28;20046;-72
2023/11/01 03:36:42;;;;;;;5.50;0.90;;;;;;;;;;5120021;28;20383;-73
2023/11/01 03:39:09;;;;;;;4.10;1.02;;;;;;;;;;5120082;28;20337;-73
2023/11/01 03:41:42;;;;;;;4.32;1.00;;;;;;;;;;5119659;28;20023;-72
2023/11/01 03:44:08;;;;;;;5.10;1.08;;;;;;;;;;5120026;28;20031;-71
2023/11/01 03:46:35;;;;;;;2.40;0.63;;;;;;;;;;5101462;28;20061;-72
2023/11/01 03:49:01;;;;;;;1.58;0.60;;;;;;;;;;5119965;28;20023;-73
2023/11/01 03:51:27;;;;;;;2.13;0.70;;;;;;;;;;5118593;28;20015;-72
2023/11/01 03:53:53;;;;;;;1.13;0.35;;;;;;;;;;5091041;28;20020;-72
2023/11/01 03:56:20;;;;;;;0.70;0.40;;;;;;;;;;5116102;28;20557;-73
2023/11/01 03:58:46;;;;;;;0.60;0.20;;;;;;;;;;5119988;28;20035;-72
2023/11/01 04:01:12;;;;;;;1.58;0.40;;;;;;;;;;5119363;28;20450;-72
2023/11/01 04:03:38;;;;;;;0.88;0.40;;;;;;;;;;5119776;28;20019;-72
2023/11/01 04:06:04;;;;;;;0.88;0.35;;;;;;;;;;5119449;27;20428;-72
2023/11/01 04:08:30;;;;;;;1.63;0.30;;;;;;;;;;5119390;28;20026;-72
2023/11/01 04:10:56;;;;;;;0.60;0.30;;;;;;;;;;5119336;28;20027;-72
2023/11/01 04:13:22;;;;;;;0.60;0.30;;;;;;;;;;5119711;28;20056;-72
2023/11/01 04:15:48;;;;;;;1.05;0.20;;;;;;;;;;5119339;28;20498;-72
2023/11/01 04:18:15;;;;;;;1.33;0.22;;;;;;;;;;5119538;28;20532;-72
2023/11/01 04:20:41;;;;;;;1.52;0.20;;;;;;;;;;5117740;28;20035;-72
2023/11/01 04:23:08;;;;;;;0.70;0.30;;;;;;;;;;5119245;28;20131;-72
2023/11/01 04:25:35;;;;;;;0.85;0.30;;;;;;;;;;5119047;28;20023;-72
2023/11/01 04:28:01;;;;;;;1.27;0.30;;;;;;;;;;5117894;28;20027;-72
2023/11/01 04:30:27;;;;;;;1.25;0.35;;;;;;;;;;5118981;28;20103;-73
2023/11/01 04:32:53;;;;;;;0.90;0.32;;;;;;;;;;5119218;28;20023;-72
2023/11/01 04:35:19;;;;;;;0.85;0.30;;;;;;;;;;5119086;28;20488;-72
2023/11/01 04:37:44;;;;;;;3.45;0.40;;;;;;;;;;5118822;28;20027;-72
2023/11/01 04:40:12;;;;;;;0.85;0.30;;;;;;;;;;5118694;28;20038;-72
2023/11/01 04:42:38;;;;;;;2.83;0.50;;;;;;;;;;5118723;28;20030;-73
2023/11/01 04:45:06;;;;;;;0.80;0.30;;;;;;;;;;5100339;28;20108;-72
2023/11/01 04:47:32;;;;;;;0.95;0.30;;;;;;;;;;5118832;28;20024;-73
2023/11/01 04:49:58;;;;;;;2.38;0.45;;;;;;;;;;5100665;27;20023;-73
2023/11/01 04:52:24;;;;;;;0.75;0.30;;;;;;;;;;5128072;27;20027;-73
2023/11/01 04:54:50;;;;;;;1.73;0.30;;;;;;;;;;5118228;28;20030;-73
2023/11/01 04:57:16;;;;;;;1.23;0.35;;;;;;;;;;5100366;28;20038;-73
2023/11/01 04:59:42;;;;;;;2.13;0.43;;;;;;;;;;5117929;28;20099;-73
2023/11/01 05:02:08;;;;;;;1.60;0.30;;;;;;;;;;5118589;28;20380;-73
2023/11/01 05:04:34;;;;;;;0.93;0.30;;;;;;;;;;5118420;28;20020;-73
2023/11/01 05:07:00;;;;;;;1.50;0.40;;;;;;;;;;5118506;28;20030;-73
2023/11/01 05:09:26;;;;;;;2.13;0.50;;;;;;;;;;5118058;28;20023;-72
2023/11/01 05:11:52;;;;;;;2.30;0.43;;;;;;;;;;5099945;28;20024;-72
2023/11/01 05:14:18;;;;;;;0.77;0.30;;;;;;;;;;5118224;28;20505;-73
2023/11/01 05:16:44;;;;;;;3.63;0.52;;;;;;;;;;5118394;28;20019;-73
2023/11/01 05:19:10;;;;;;;1.73;0.40;;;;;;;;;;5118047;28;20042;-73
2023/11/01 05:21:37;;;;;;;2.70;0.52;;;;;;;;;;5118229;28;20032;-73
2023/11/01 05:24:07;;;;;;;1.40;0.40;;;;;;;;;;5117888;28;20020;-73
2023/11/01 05:26:36;;;;;;;1.33;0.30;;;;;;;;;;5118228;28;20477;-73
2023/11/01 05:29:02;;;;;;;1.90;0.40;;;;;;;;;;5117940;28;20027;-73
2023/11/01 05:31:28;;;;;;;1.38;0.38;;;;;;;;;;5118172;28;20028;-72
2023/11/01 05:33:55;;;;;;;1.20;0.40;;;;;;;;;;5099585;28;20027;-72
2023/11/01 05:36:21;;;;;;;1.10;0.40;;;;;;;;;;5099713;28;20062;-72
2023/11/01 05:38:47;;;;;;;1.95;0.40;;;;;;;;;;5117719;28;20028;-72
2023/11/01 05:41:13;;;;;;;2.03;0.43;;;;;;;;;;5117632;28;20028;-72
2023/11/01 05:43:40;;;;;;;4.03;0.65;;;;;;;;;;5117684;28;20031;-72
2023/11/01 05:46:06;;;;;;;0.65;0.30;;;;;;;;;;5117877;28;20023;-72
2023/11/01 05:48:32;;;;;;;2.47;0.50;;;;;;;;;;5117728;28;20020;-72
2023/11/01 05:50:59;;;;;;;3.75;0.50;;;;;;;;;;5108085;28;20027;-73
2023/11/01 05:53:25;;;;;;;1.90;0.50;;;;;;;;;;5099324;28;20024;-73
2023/11/01 05:55:52;;;;;;;1.67;0.40;;;;;;;;;;5117668;28;20062;-73
2023/11/01 05:58:19;;;;;;;2.22;0.30;;;;;;;;;;5117745;28;20016;-73
2023/11/01 06:00:45;;;;;;;1.25;0.40;;;;;;;;;;5117665;28;20028;-73
2023/11/01 06:03:11;;;;;;;0.90;0.30;;;;;;;;;;5099408;28;20118;-73
2023/11/01 06:05:38;;;;;;;1.65;0.40;;;;;;;;;;5099381;28;20107;-73
2023/11/01 06:08:06;;;;;;;2.67;0.50;;;;;;;;;;5099165;28;20122;-73
2023/11/01 06:10:32;;;;;;;2.15;0.30;;;;;;;;;;5117627;28;20020;-72
2023/11/01 06:12:58;;;;;;;1.00;0.28;;;;;;;;;;5121545;28;20034;-73
2023/11/01 06:15:24;;;;;;;1.23;0.40;;;;;;;;;;5121755;28;20069;-72
2023/11/01 06:17:50;;;;;;;3.05;0.43;;;;;;;;;;5121850;28;20035;-72
2023/11/01 06:20:16;;;;;;;1.08;0.40;;;;;;;;;;5103151;28;20526;-72
2023/11/01 06:22:42;;;;;;;1.35;0.35;;;;;;;;;;5121481;28;20030;-72
2023/11/01 06:25:10;;;;;;;0.80;0.35;;;;;;;;;;5103045;28;20023;-71
2023/11/01 06:27:36;;;;;;;1.95;0.40;;;;;;;;;;5103280;28;20023;-72
2023/11/01 06:30:06;;;;;;;6.20;0.43;;;;;;;;;;5103304;28;20019;-72
2023/11/01 06:32:37;;;;;;;2.25;0.43;;;12.50;99.90;;;;;;5120944;28;20028;-74
2023/11/01 06:35:04;;;;;;;2.58;0.45;;;12.20;99.90;;;;;;5120981;28;20027;-75
2023/11/01 06:37:30;;;;;;;1.33;0.50;;;12.00;99.90;;;;;;5121168;28;20031;-76
2023/11/01 06:39:56;;;;;;;2.25;0.40;;;11.90;99.90;;;;;;5120934;28;20027;-75
2023/11/01 06:42:21;;;;;;;3.67;0.40;;;11.80;99.90;;;;;;5120967;28;20085;-75
2023/11/01 06:44:47;;;;;;;0.77;0.40;;;11.70;99.90;;;;;;5121058;28;20024;-75
2023/11/01 06:47:12;;;;;;;0.68;0.35;;;11.60;99.90;;;;;;5102937;28;20020;-75
2023/11/01 06:49:38;;;;;;;1.25;0.35;;;11.40;99.90;;;;;;5102525;28;20079;-75
2023/11/01 06:52:07;;;;;;;1.17;0.30;;;11.30;99.90;;;;;;5105951;28;20031;-76
2023/11/01 06:54:40;;;;;;;1.48;0.43;;;11.20;99.90;;;;;;5120509;28;20112;-75
2023/11/01 06:57:10;;;;;;;1.08;0.40;;;11.20;99.90;;;;;;5120399;28;20028;-75
2023/11/01 06:59:37;;;;;;;1.02;0.30;;;11.20;99.90;;;;;;5117968;28;20030;-75
2023/11/01 07:02:02;;;;;;;2.45;0.30;;;11.20;99.90;;;;;;5120333;28;20048;-75
2023/11/01 07:04:28;;;;;;;0.90;0.28;;;11.20;99.90;;;;;;5101794;28;20016;-75
2023/11/01 07:06:54;;;;;;;1.50;0.30;;;11.30;99.90;;;;;;5120586;28;20028;-75
2023/11/01 07:09:20;;;;;;;1.10;0.32;;;11.20;99.90;;;;;;5101481;28;20538;-75
2023/11/01 07:11:45;;;;;;;1.05;0.25;;;11.30;99.90;;;;;;5120586;28;20051;-75
2023/11/01 07:14:11;;;;;;;1.20;0.30;;;11.30;99.90;;;;;;5102293;28;20012;-75
2023/11/01 07:16:41;;;;;;;0.77;0.30;;;11.20;99.90;;;;;;5120719;28;20077;-75
2023/11/01 07:19:07;;;;;;;1.25;0.40;;;11.20;99.90;;;;;;5120451;28;20554;-75
2023/11/01 07:21:32;;;;;;;1.45;0.40;;;11.20;99.90;;;;;;5120286;28;20059;-75
2023/11/01 07:23:58;;;;;;;1.48;0.38;;;11.30;99.90;;;;;;5119558;28;20046;-74
2023/11/01 07:26:23;;;;;;;1.50;0.40;;;11.20;99.90;;;;;;5120315;28;20024;-74
2023/11/01 07:28:49;;;;;;;2.00;0.40;;;11.20;99.90;;;;;;5120337;28;20043;-74
2023/11/01 07:31:15;;;;;;;1.08;0.40;;;11.20;99.90;;;;;;5119011;28;20035;-74
2023/11/01 07:33:42;;;;;;;1.15;0.30;;;11.10;99.90;;;;;;5120015;28;20050;-74
2023/11/01 07:36:08;;;;;;;0.88;0.32;;;11.20;99.90;;;;;;5120232;28;20042;-74
2023/11/01 07:38:34;;;;;;;1.75;0.40;;;11.20;99.90;;;;;;5119822;28;20031;-74
2023/11/01 07:41:00;;;;;;;1.23;0.45;;;11.10;99.90;;;;;;5117215;28;20032;-74
2023/11/01 07:43:26;;;;;;;0.93;0.30;;;11.20;99.90;;;;;;5119615;28;20015;-74
2023/11/01 07:45:52;;;;;;;1.17;0.50;;;11.20;99.90;;;;;;5119497;28;20023;-73
2023/11/01 07:48:18;;;;;;;2.60;0.60;;;11.20;99.90;;;;;;5104010;28;20020;-74
2023/11/01 07:50:44;;;;;;;1.67;0.40;;;11.20;99.90;;;;;;5126745;27;20499;-73
2023/11/01 07:53:10;;;;;;;2.25;0.40;;;11.20;99.90;;;;;;5121554;27;20500;-75
2023/11/01 07:55:36;;;;;;;1.40;0.45;;;;;;;;;;5119253;28;20024;-75
2023/11/01 07:58:02;;;;;;;2.17;0.50;;;;;;;;;;5103511;28;20022;-75
2023/11/01 08:00:28;;;;;;;2.33;0.65;;;;;;;;;;5100760;28;20036;-75
2023/11/01 08:02:54;;;;;;;2.38;0.40;;;;;;;;;;5101417;28;20044;-75
2023/11/01 08:05:20;;;;;;;1.92;0.47;;;;;;;;;;5119336;28;20024;-75
2023/11/01 08:07:46;;;;;;;2.08;0.40;;;;;;;;;;5100971;28;20020;-75
2023/11/01 08:10:12;;;;;;;2.83;0.63;;;;;;;;;;5119064;28;20061;-75
2023/11/01 08:12:38;;;;;;;2.65;0.52;;;;;;;;;;5118869;28;20031;-75
2023/11/01 08:15:05;;;;;;;1.73;0.70;;;;;;;;;;5117880;28;20023;-74
2023/11/01 08:17:31;;;;;;;2.13;0.52;;;;;;;;;;5118001;28;20027;-75
2023/11/01 08:19:57;;;;;;;1.38;0.30;;;;;;;;;;5118433;28;20061;-74
2023/11/01 08:22:23;;;;;;;2.63;0.60;;;;;;;;;;5102125;28;20124;-74
2023/11/01 08:24:49;;;;;;;2.38;0.52;;;;;;;;;;5119152;28;20392;-76
2023/11/01 08:27:15;;;;;;;2.17;0.50;;;;;;;;;;5118838;28;20027;-76
2023/11/01 08:29:43;;;;;;;2.42;0.50;;;;;;;;;;5100918;28;20020;-76
2023/11/01 08:32:09;;;;;;;2.40;0.40;;;;;;;;;;5119078;28;20024;-75
2023/11/01 08:34:35;;;;;;;1.75;0.47;;;;;;;;;;5118193;28;20080;-76
2023/11/01 08:37:02;;;;;;;1.85;0.60;;;;;;;;;;5100454;28;20396;-75
2023/11/01 08:39:28;;;;;;;2.28;0.50;;;;;;;;;;5118905;28;20031;-75
2023/11/01 08:41:54;;;;;;;3.17;0.73;;;;;;;;;;5100308;28;20020;-75
2023/11/01 08:44:20;;;;;;;2.45;0.50;;;;;;;;;;5119150;28;20020;-76
2023/11/01 08:46:46;;;;;;;2.15;0.60;;;;;;;;;;5100465;28;20069;-76
2023/11/01 08:49:13;;;;;;;3.78;0.43;;;;;;;;;;5119070;28;20376;-73
2023/11/01 08:51:39;;;;;;;1.92;0.60;;;;;;;;;;5128503;27;20024;-73
2023/11/01 08:54:11;;;;;;;2.47;0.63;;;;;;;;;;5118875;28;20020;-75
2023/11/01 08:56:37;;;;;;;3.05;0.90;;;;;;;;;;5118347;28;20541;-75
2023/11/01 08:59:06;;;;;;;3.15;0.80;;;;;;;;;;5118689;28;20023;-76
2023/11/01 09:01:33;;;;;;;2.78;0.47;;;;;;;;;;5118196;28;20126;-74
2023/11/01 09:03:59;;;;;;;3.25;0.80;;;;;;;;;;5118438;28;20032;-74
2023/11/01 09:06:25;;;;;;;3.40;0.60;;;;;;;;;;5118355;28;20028;-74
2023/11/01 09:08:51;;;;;;;3.20;0.80;;;;;;;;;;5118175;28;20023;-74
2023/11/01 09:11:22;;;;;;;2.97;0.77;;;;;;;;;;5099940;28;20023;-74
2023/11/01 09:13:48;;;;;;;4.05;1.00;;;;;;;;;;5099900;28;20079;-72
2023/11/01 09:16:14;;;;;;;5.07;0.68;;;;;;;;;;5118355;28;20457;-73
2023/11/01 09:18:40;;;;;;;2.33;0.60;;;;;;;;;;5118076;28;20587;-73
2023/11/01 09:21:07;;;;;;;3.35;0.77;;;;;;;;;;5118315;28;20020;-73
2023/11/01 09:23:34;;;;;;;3.92;1.30;;;;;;;;;;5117756;27;20012;-73
2023/11/01 09:26:01;;;;;;;2.70;0.60;;;;;;;;;;5118110;28;20026;-73
2023/11/01 09:28:27;;;;;;;1.23;0.45;;;;;;;;;;5116636;28;20068;-73
2023/11/01 09:30:54;;;;;;;2.05;0.63;;;;;;;;;;5117972;28;20027;-65
2023/11/01 09:33:20;;;;;;;2.65;0.70;;;;;;;;;;5116581;28;20106;-71
2023/11/01 09:35:46;;;;;;;2.58;0.65;;;;;;;;;;5118033;28;20055;-76
2023/11/01 09:38:12;;;;;;;2.15;0.70;;;;;;;;;;5116509;28;20052;-76
2023/11/01 09:40:38;;;;;;;3.17;0.60;;;;;;;;;;5117683;28;20045;-75
2023/11/01 09:43:05;;;;;;;3.55;0.70;;;;;;;;;;5117858;28;20139;-76
2023/11/01 09:45:32;;;;;;;1.75;0.65;;;;;;;;;;5118003;28;20500;-75
2023/11/01 09:47:58;;;;;;;3.58;0.70;;;;;;;;;;5117580;28;20023;-75
2023/11/01 09:50:24;;;;;;;4.10;0.70;;;;;;;;;;5121531;28;20049;-77
2023/11/01 09:52:50;;;;;;;3.40;0.80;;;;;;;;;;5122609;28;20118;-78
2023/11/01 09:55:16;;;;;;;3.50;0.70;;;;;;;;;;5099434;28;20423;-76
2023/11/01 09:57:43;;;;;;;3.63;0.73;;;;;;;;;;5117877;28;20069;-77
2023/11/01 10:00:10;;;;;;;2.63;0.68;;;;;;;;;;5099385;28;20076;-77
2023/11/01 10:02:37;;;;;;;2.95;0.60;;;;;;;;;;5104036;28;20461;-72
2023/11/01 10:05:04;;;;;;;3.67;0.75;;;;;;;;;;5116411;28;20023;-71
2023/11/01 10:07:30;;;;;;;4.05;0.82;;;;;;;;;;5116540;28;20031;-71
2023/11/01 10:09:56;;;;;;;4.55;0.80;;;;;;;;;;5116459;28;20046;-72
2023/11/01 10:12:22;;;;;;;3.60;0.85;;;;;;;;;;5115887;28;20032;-73
2023/11/01 10:14:48;;;;;;;5.45;0.80;;;;;;;;;;5116797;28;20019;-70
2023/11/01 10:17:14;;;;;;;4.20;0.80;;;;;;;;;;5098236;28;20032;-72
2023/11/01 10:19:43;;;;;;;1.63;0.68;;;;;;;;;;5117205;28;20106;-71
2023/11/01 10:22:13;;;;;;;1.73;0.68;;;;;;;;;;5123527;28;20126;-71
2023/11/01 10:24:42;;;;;;;3.67;0.60;;;;;;;;;;5120353;28;20016;-73
2023/11/01 10:27:08;;;;;;;3.38;0.55;;;;;;;;;;5117571;28;20019;-75
2023/11/01 10:29:41;;;;;;;5.18;0.60;;;;;;;;;;5131186;28;20027;-74
2023/11/01 10:32:10;;;;;;;3.78;0.68;;;;;;;;;;5105394;28;20027;-72
2023/11/01 10:34:36;;;;;;;4.97;0.93;;;;;;;;;;5100273;28;20028;-72
2023/11/01 10:37:04;;;;;;;5.28;0.90;;;;;;;;;;5128216;28;20019;-73
2023/11/01 10:39:33;;;;;;;2.95;0.55;;;;;;;;;;5119441;28;20012;-71
2023/11/01 10:41:59;;;;;;;4.32;0.55;;;;;;;;;;5115086;28;20061;-73
2023/11/01 10:44:26;;;;;;;4.93;0.80;;;;;;;;;;5128732;28;20023;-70
2023/11/01 10:46:52;;;;;;;6.30;0.73;;;;;;;;;;5127904;28;20020;-80
2023/11/01 10:49:18;;;;;;;3.80;0.80;;;;;;;;;;5112840;28;20059;-77
2023/11/01 10:51:45;;;;;;;3.47;0.68;;;;;;;;;;5098051;28;20020;-77
2023/11/01 10:54:11;;;;;;;3.95;0.88;;;;;;;;;;5100401;28;20051;-77
2023/11/01 10:56:38;;;;;;;4.30;0.82;;;;;;;;;;5118066;28;20036;-74
2023/11/01 10:59:07;;;;;;;7.55;1.20;;;;;;;;;;5103907;27;20051;-75
2023/11/01 11:01:42;;;;;;;2.25;0.55;;;;;;;;;;5125039;27;20042;-75
2023/11/01 11:04:14;;;;;;;4.15;0.52;;;;;;;;;;5118568;27;20020;-76
2023/11/01 11:06:44;;;;;;;5.88;0.70;;;;;;;;;;5088559;28;20020;-76
2023/11/01 11:09:24;;;;;;;5.97;0.98;;;;;;;;;;5117385;28;20452;-78
2023/11/01 11:12:10;;;;;;;5.45;0.70;;;;;;;;;;5120175;28;20087;-79
2023/11/01 11:14:54;;;;;;;4.40;0.70;;;;;;;;;;5102113;28;20036;-78
2023/11/01 11:17:23;;;;;;;3.40;0.73;;;;;;;;;;5119545;28;20031;-80
2023/11/01 11:20:11;;;;;;;4.53;0.75;;;;;;;;;;5118469;28;20019;-77
2023/11/01 11:22:56;;;;;;;5.63;0.77;;;;;;;;;;5100875;28;20028;-78
2023/11/01 11:25:41;;;;;;;3.40;0.70;;;;;;;;;;5119195;28;20024;-79
2023/11/01 11:28:08;;;;;;;6.40;1.10;;;;;;;;;;5119722;28;20073;-79
2023/11/01 11:30:53;;;;;;;3.63;0.95;;;;;;;;;;5120194;28;20028;-79
2023/11/01 11:33:19;;;;;;;6.50;1.10;;;;;;;;;;5120347;28;20023;-79
2023/11/01 11:36:05;;;;;;;3.25;0.80;;;;;;;;;;5101937;28;20030;-79
2023/11/01 11:38:33;;;;;;;4.88;0.90;;;;;;;;;;5101420;28;20028;-79
2023/11/01 11:41:12;;;;;;;5.82;0.98;;;;;;;;;;5119747;28;20023;-79
2023/11/01 11:43:57;;;;;;;3.95;0.80;;;;;;;;;;5101746;28;20020;-79
2023/11/01 11:46:44;;;;;;;6.22;0.80;;;;;;;;;;5120093;28;20360;-79
2023/11/01 11:49:30;;;;;;;4.22;0.95;;;;;;;;;;5120082;28;20150;-79
2023/11/01 11:51:57;;;;;;;3.50;1.02;;;;;;;;;;5129226;27;20500;-80
2023/11/01 11:54:24;;;;;;;4.70;0.95;;;;;;;;;;5119811;28;20105;-80
2023/11/01 11:57:08;;;;;;;5.68;0.98;;;;;;;;;;5119724;28;20028;-80
2023/11/01 11:59:35;;;;;;;6.38;1.30;;;;;;;;;;5101349;28;20027;-80
2023/11/01 12:02:15;;;;;;;7.95;0.98;;;;;;;;;;5097873;28;20532;-80
2023/11/01 12:04:42;;;;;;;1.80;0.70;;;;;;;;;;5098363;28;20532;-80
2023/11/01 12:07:16;;;;;;;3.83;1.10;;;;;;;;;;5098896;28;20020;-80
2023/11/01 12:09:47;;;;;;;3.47;0.70;;;;;;;;;;5098122;28;20020;-80
2023/11/01 12:12:13;;;;;;;3.78;0.70;;;;;;;;;;5097716;28;20140;-80
2023/11/01 12:14:40;;;;;;;5.85;1.25;;;;;;;;;;5098909;28;20024;-80
2023/11/01 12:17:07;;;;;;;6.78;0.90;;;;;;;;;;5099117;28;20145;-80
2023/11/01 12:19:33;;;;;;;5.32;1.00;;;;;;;;;;5097669;28;20544;-80
2023/11/01 12:22:00;;;;;;;7.20;1.02;;;;;;;;;;5099206;28;20496;-80
2023/11/01 12:24:28;;;;;;;6.32;1.13;;;;;;;;;;5098651;28;20030;-79
2023/11/01 12:27:10;;;;;;;4.57;0.95;;;;;;;;;;5097462;28;20020;-80
2023/11/01 12:29:39;;;;;;;4.00;0.63;;;;;;;;;;5097770;28;20024;-79
2023/11/01 12:32:12;;;;;;;7.60;1.10;;;;;;;;;;5097239;28;20024;-79
2023/11/01 12:34:58;;;;;;;4.50;0.90;;;;;;;;;;5098641;28;20028;-79
2023/11/01 12:37:24;;;;;;;5.95;1.33;;;;;;;;;;5087843;28;20075;-79
2023/11/01 12:40:09;;;;;;;3.47;0.88;;;;;;;;;;5096902;28;20435;-80
2023/11/01 12:42:37;;;;;;;5.57;1.20;;;;;;;;;;5081166;28;20039;-80
2023/11/01 12:45:03;;;;;;;4.88;0.85;;;;;;;;;;5095893;28;20016;-80
2023/11/01 12:47:39;;;;;;;6.05;1.10;;;;;;;;;;5097448;28;20020;-80
2023/11/01 12:50:05;;;;;;;10.25;1.30;;;;;;;;;;5096759;28;20135;-80
2023/11/01 12:52:31;;;;;;;7.20;1.27;;;;;;;;;;5098080;28;20027;-80
2023/11/01 12:54:57;;;;;;;5.10;1.17;;;;;;;;;;5096815;28;20404;-80
2023/11/01 12:57:24;;;;;;;6.60;1.10;;;;;;;;;;5097208;28;20028;-82
2023/11/01 12:59:50;;;;;;;5.63;0.90;;;;;;;;;;5098226;28;20085;-79
2023/11/01 13:02:17;;;;;;;6.82;1.23;;;;;;;;;;5110500;28;20040;-80
2023/11/01 13:04:43;;;;;;;3.00;0.85;;;;;;;;;;5118654;28;20035;-80
2023/11/01 13:07:09;;;;;;;5.57;1.20;;;;;;;;;;5100187;28;20023;-80
2023/11/01 13:09:35;;;;;;;3.15;0.90;;;;;;;;;;5100318;28;20039;-80
2023/11/01 13:12:02;;;;;;;5.22;1.10;;;;;;;;;;5118521;28;20026;-80
2023/11/01 13:14:28;;;;;;;3.53;0.82;;;;;;;;;;5118200;28;20028;-80
2023/11/01 13:16:54;;;;;;;3.92;0.70;;;;;;;;;;5100298;28;20028;-80
2023/11/01 13:19:20;;;;;;;4.55;0.80;;;;;;;;;;5118586;28;20102;-80
2023/11/01 13:21:46;;;;;;;4.13;0.90;;;;;;;;;;5117752;28;20016;-79
2023/11/01 13:24:12;;;;;;;4.32;0.70;;;;;;;;;;5118056;28;20441;-81
2023/11/01 13:26:39;;;;;;;3.58;0.70;;;;;;;;;;5118243;28;20069;-80
2023/11/01 13:29:05;;;;;;;5.65;0.85;;;;;;;;;;5118129;28;20107;-80
2023/11/01 13:31:31;;;;;;;5.03;1.10;;;;;;;;;;5118058;28;20028;-79
2023/11/01 13:33:57;;;;;;;7.47;1.05;;;;;;;;;;5100111;28;20145;-80
2023/11/01 13:36:23;;;;;;;6.43;1.20;;;;;;;;;;5118060;28;20020;-80
2023/11/01 13:38:49;;;;;;;5.55;0.98;;;;;;;;;;5117578;28;20034;-80
2023/11/01 13:41:15;;;;;;;3.42;0.70;;;;;;;;;;5104033;28;20053;-80
2023/11/01 13:43:41;;;;;;;2.22;0.73;;;;;;;;;;5099502;28;20020;-80
2023/11/01 13:46:07;;;;;;;4.53;0.70;;;;;;;;;;5099353;28;20016;-79
2023/11/01 13:48:33;;;;;;;4.70;0.82;;;;;;;;;;5098926;28;20077;-76
2023/11/01 13:50:59;;;;;;;1.77;0.57;;;;;;;;;;5118347;27;20027;-74
2023/11/01 13:53:25;;;;;;;2.60;0.60;;;;;;;;;;5116918;28;20035;-72
2023/11/01 13:55:51;;;;;;;5.18;1.10;;;;;;;;;;5099380;28;20015;-73
2023/11/01 13:58:17;;;;;;;2.92;0.52;;;;;;;;;;5117320;28;20031;-74
2023/11/01 14:00:44;;;;;;;3.97;1.13;;;;;;;;;;5117755;28;20028;-77
2023/11/01 14:03:10;;;;;;;3.53;0.80;;;;;;;;;;5116572;28;20044;-75
2023/11/01 14:05:40;;;;;;;2.20;0.70;;;;;;;;;;5098763;28;20024;-79
2023/11/01 14:08:07;;;;;;;4.57;0.90;;;;;;;;;;5100473;28;20471;-80
2023/11/01 14:10:33;;;;;;;3.38;0.63;;;;;;;;;;5110327;28;20102;-78
